createdAt,value
2016-12-17T00:00:49.654Z,1018.26
2016-12-17T00:01:59.673Z,1018.2
2016-12-17T00:03:09.995Z,1018.22
2016-12-17T00:04:20.006Z,1018.21
2016-12-17T00:05:30.018Z,1018.18
2016-12-17T00:06:40.030Z,1018.18
2016-12-17T00:07:50.041Z,1018.15
2016-12-17T00:09:00.057Z,1018.16
2016-12-17T00:10:10.433Z,1018.17
2016-12-17T00:11:20.136Z,1018.16
2016-12-17T00:12:29.837Z,1018.16
2016-12-17T00:13:40.185Z,1018.16
2016-12-17T00:14:50.518Z,1018.15
2016-12-17T00:16:00.533Z,1018.16
2016-12-17T00:17:10.561Z,1018.13
2016-12-17T00:18:20.573Z,1018.16
2016-12-17T00:19:30.900Z,1018.13
2016-12-17T00:20:41.210Z,1018.18
2016-12-17T00:21:50.931Z,1018.16
2016-12-17T00:23:00.626Z,1018.17
2016-12-17T00:24:10.650Z,1018.18
2016-12-17T00:25:20.036Z,1018.15
2016-12-17T00:26:30.069Z,1018.17
2016-12-17T00:27:40.100Z,1018.11
2016-12-17T00:28:50.116Z,1018.08
2016-12-17T00:30:00.139Z,1018.04
2016-12-17T00:31:10.471Z,1018.03
2016-12-17T00:32:20.482Z,1018.05
2016-12-17T00:33:29.868Z,1018.08
2016-12-17T00:34:39.885Z,1018.08
2016-12-17T00:35:50.219Z,1018.08
2016-12-17T00:37:00.241Z,1018.13
2016-12-17T00:38:09.945Z,1018.15
2016-12-17T00:39:19.956Z,1018.17
2016-12-17T00:40:30.284Z,1018.21
2016-12-17T00:41:40.600Z,1018.22
2016-12-17T00:42:50.916Z,1018.22
2016-12-17T00:44:01.239Z,1018.23
2016-12-17T00:45:11.571Z,1018.26
2016-12-17T00:46:21.587Z,1018.3
2016-12-17T00:47:31.908Z,1018.29
2016-12-17T00:48:41.625Z,1018.28
2016-12-17T00:49:51.938Z,1018.32
2016-12-17T00:51:02.274Z,1018.32
2016-12-17T00:52:12.275Z,1018.27
2016-12-17T00:53:22.334Z,1018.33
2016-12-17T00:54:32.644Z,1018.28
2016-12-17T00:55:42.656Z,1018.3
2016-12-17T00:56:52.672Z,1018.27
2016-12-17T00:58:02.986Z,1018.24
2016-12-17T00:59:12.676Z,1018.25
2016-12-17T01:00:22.698Z,1018.24
2016-12-17T01:01:32.720Z,1018.25
2016-12-17T01:02:42.721Z,1018.22
2016-12-17T01:03:53.022Z,1018.26
2016-12-17T01:05:03.343Z,1018.2
2016-12-17T01:06:13.351Z,1018.21
2016-12-17T01:07:23.348Z,1018.23
2016-12-17T01:08:33.049Z,1018.22
2016-12-17T01:09:43.380Z,1018.26
2016-12-17T01:10:53.404Z,1018.18
2016-12-17T01:12:03.425Z,1018.25
2016-12-17T01:13:13.431Z,1018.18
2016-12-17T01:14:23.753Z,1018.21
2016-12-17T01:15:34.073Z,1018.2
2016-12-17T01:16:44.082Z,1018.18
2016-12-17T01:17:54.412Z,1018.27
2016-12-17T01:19:04.415Z,1018.18
2016-12-17T01:20:14.755Z,1018.22
2016-12-17T01:21:25.092Z,1018.22
2016-12-17T01:22:35.408Z,1018.22
2016-12-17T01:23:45.430Z,1018.2
2016-12-17T01:24:55.463Z,1018.18
2016-12-17T01:26:05.179Z,1018.18
2016-12-17T01:27:15.184Z,1018.23
2016-12-17T01:28:25.228Z,1018.24
2016-12-17T01:29:35.247Z,1018.23
2016-12-17T01:30:45.588Z,1018.24
2016-12-17T01:31:55.922Z,1018.25
2016-12-17T01:33:06.299Z,1018.23
2016-12-17T01:34:16.315Z,1018.22
2016-12-17T01:35:26.051Z,1018.29
2016-12-17T01:36:36.376Z,1018.2
2016-12-17T01:37:46.070Z,1018.16
2016-12-17T01:38:56.095Z,1018.21
2016-12-17T01:40:06.113Z,1018.19
2016-12-17T01:41:16.129Z,1018.2
2016-12-17T01:42:26.454Z,1018.21
2016-12-17T01:43:36.468Z,1018.25
2016-12-17T01:44:46.800Z,1018.27
2016-12-17T01:45:57.120Z,1018.26
2016-12-17T01:47:07.439Z,1018.25
2016-12-17T01:48:17.449Z,1018.22
2016-12-17T01:49:27.787Z,1018.2
2016-12-17T01:50:38.116Z,1018.2
2016-12-17T01:51:48.118Z,1018.18
2016-12-17T01:52:58.425Z,1018.19
2016-12-17T01:54:08.737Z,1018.17
2016-12-17T01:55:18.741Z,1018.17
2016-12-17T01:56:28.766Z,1018.17
2016-12-17T01:57:38.776Z,1018.19
2016-12-17T01:58:49.113Z,1018.15
2016-12-17T01:59:59.450Z,1018.2
2016-12-17T02:01:09.790Z,1018.18
2016-12-17T02:02:20.102Z,1018.17
2016-12-17T02:03:30.134Z,1018.18
2016-12-17T02:04:40.457Z,1018.21
2016-12-17T02:05:49.838Z,1018.2
2016-12-17T02:06:59.559Z,1018.15
2016-12-17T02:08:09.897Z,1018.17
2016-12-17T02:09:20.219Z,1018.17
2016-12-17T02:10:30.567Z,1018.16
2016-12-17T02:11:40.583Z,1018.18
2016-12-17T02:12:50.597Z,1018.18
2016-12-17T02:14:00.602Z,1018.16
2016-12-17T02:15:10.298Z,1018.14
2016-12-17T02:16:20.613Z,1018.15
2016-12-17T02:17:30.325Z,1018.17
2016-12-17T02:18:40.022Z,1018.17
2016-12-17T02:19:50.025Z,1018.14
2016-12-17T02:21:00.031Z,1018.16
2016-12-17T02:22:10.407Z,1018.16
2016-12-17T02:23:20.737Z,1018.14
2016-12-17T02:24:30.735Z,1018.19
2016-12-17T02:25:41.052Z,1018.15
2016-12-17T02:26:51.369Z,1018.12
2016-12-17T02:28:01.699Z,1018.1
2016-12-17T02:29:12.024Z,1018.19
2016-12-17T02:30:22.342Z,1018.17
2016-12-17T02:31:32.668Z,1018.17
2016-12-17T02:32:42.358Z,1018.14
2016-12-17T02:33:52.693Z,1018.14
2016-12-17T02:35:03.006Z,1018.14
2016-12-17T02:36:13.327Z,1018.12
2016-12-17T02:37:23.653Z,1018.14
2016-12-17T02:38:33.362Z,1018.15
2016-12-17T02:39:43.363Z,1018.19
2016-12-17T02:40:53.373Z,1018.2
2016-12-17T02:42:03.389Z,1018.18
2016-12-17T02:43:13.742Z,1018.19
2016-12-17T02:44:24.097Z,1018.18
2016-12-17T02:45:34.406Z,1018.18
2016-12-17T02:46:44.716Z,1018.17
2016-12-17T02:47:55.043Z,1018.18
2016-12-17T02:49:05.049Z,1018.15
2016-12-17T02:50:15.376Z,1018.19
2016-12-17T02:51:25.690Z,1018.16
2016-12-17T02:52:35.728Z,1018.13
2016-12-17T02:53:46.040Z,1018.09
2016-12-17T02:54:56.049Z,1018.11
2016-12-17T02:56:05.755Z,1018.06
2016-12-17T02:57:16.086Z,1018.05
2016-12-17T02:58:25.467Z,1018.05
2016-12-17T02:59:35.785Z,1018.1
2016-12-17T03:00:45.472Z,1018.04
2016-12-17T03:32:52.804Z,1017.89
2016-12-17T03:34:03.105Z,1017.87
2016-12-17T03:35:13.107Z,1017.89
2016-12-17T03:36:23.417Z,1017.84
2016-12-17T03:37:33.729Z,1017.83
2016-12-17T03:38:43.731Z,1017.87
2016-12-17T03:39:53.743Z,1017.83
2016-12-17T03:41:04.078Z,1017.86
2016-12-17T03:42:14.387Z,1017.83
2016-12-17T03:43:24.707Z,1017.84
2016-12-17T03:44:35.048Z,1017.89
2016-12-17T03:45:45.367Z,1017.92
2016-12-17T03:46:55.699Z,1017.94
2016-12-17T03:48:05.704Z,1017.92
2016-12-17T03:49:15.388Z,1017.97
2016-12-17T03:50:25.388Z,1017.95
2016-12-17T03:51:35.406Z,1017.97
2016-12-17T03:52:45.726Z,1018
2016-12-17T03:53:55.729Z,1017.95
2016-12-17T03:55:05.745Z,1017.94
2016-12-17T03:56:16.057Z,1017.97
2016-12-17T03:57:26.375Z,1017.97
2016-12-17T03:58:36.076Z,1017.98
2016-12-17T03:59:45.771Z,1018
2016-12-17T04:00:55.463Z,1017.98
2016-12-17T04:02:05.479Z,1017.99
2016-12-17T04:03:15.498Z,1017.97
2016-12-17T04:04:25.824Z,1017.97
2016-12-17T04:05:35.215Z,1017.96
2016-12-17T04:06:45.537Z,1017.98
2016-12-17T04:07:55.535Z,1017.96
2016-12-17T04:09:05.861Z,1017.97
2016-12-17T04:10:15.569Z,1017.92
2016-12-17T04:11:25.579Z,1017.93
2016-12-17T04:12:35.896Z,1017.91
2016-12-17T04:13:46.210Z,1017.95
2016-12-17T04:14:56.205Z,1017.9
2016-12-17T04:16:05.910Z,1017.93
2016-12-17T04:17:15.946Z,1017.97
2016-12-17T04:18:26.265Z,1017.96
2016-12-17T04:19:36.596Z,1017.97
2016-12-17T04:20:46.949Z,1017.92
2016-12-17T04:21:57.279Z,1017.95
2016-12-17T04:23:07.601Z,1017.92
2016-12-17T04:24:17.928Z,1017.92
2016-12-17T04:25:27.945Z,1017.92
2016-12-17T04:26:38.260Z,1017.89
2016-12-17T04:27:48.269Z,1017.89
2016-12-17T04:28:58.278Z,1017.88
2016-12-17T04:30:08.291Z,1017.87
2016-12-17T04:31:18.315Z,1017.88
2016-12-17T04:32:28.635Z,1017.87
2016-12-17T04:33:38.647Z,1017.85
2016-12-17T04:34:48.660Z,1017.87
2016-12-17T04:35:58.693Z,1017.88
2016-12-17T04:37:08.406Z,1017.87
2016-12-17T04:38:18.754Z,1017.88
2016-12-17T04:39:29.090Z,1017.9
2016-12-17T04:40:39.432Z,1017.91
2016-12-17T04:41:49.754Z,1017.94
2016-12-17T04:43:00.080Z,1018.02
2016-12-17T04:44:10.078Z,1017.99
2016-12-17T04:45:20.389Z,1018.02
2016-12-17T04:46:30.700Z,1018.09
2016-12-17T04:47:41.027Z,1018.1
2016-12-17T04:48:51.045Z,1018.11
2016-12-17T04:50:01.365Z,1018.17
2016-12-17T04:51:11.372Z,1018.19
2016-12-17T04:52:21.699Z,1018.2
2016-12-17T04:53:32.016Z,1018.23
2016-12-17T04:54:41.709Z,1018.23
2016-12-17T04:55:51.710Z,1018.17
2016-12-17T04:57:01.716Z,1018.17
2016-12-17T04:58:11.732Z,1018.17
2016-12-17T04:59:22.051Z,1018.16
2016-12-17T05:00:32.065Z,1018.11
2016-12-17T05:01:41.462Z,1018.12
2016-12-17T05:02:51.782Z,1018.15
2016-12-17T05:04:02.119Z,1018.19
2016-12-17T05:05:12.448Z,1018.16
2016-12-17T05:06:22.756Z,1018.21
2016-12-17T05:07:32.752Z,1018.2
2016-12-17T05:08:43.103Z,1018.23
2016-12-17T05:09:53.122Z,1018.23
2016-12-17T05:11:03.122Z,1018.23
2016-12-17T05:12:13.447Z,1018.19
2016-12-17T05:13:23.446Z,1018.23
2016-12-17T05:14:33.478Z,1018.23
2016-12-17T05:15:43.182Z,1018.27
2016-12-17T05:16:53.190Z,1018.22
2016-12-17T05:18:03.510Z,1018.29
2016-12-17T05:19:13.822Z,1018.29
2016-12-17T05:20:24.130Z,1018.23
2016-12-17T05:21:33.521Z,1018.24
2016-12-17T05:22:43.215Z,1018.25
2016-12-17T05:23:52.900Z,1018.25
2016-12-17T05:25:02.922Z,1018.24
2016-12-17T05:26:12.930Z,1018.23
2016-12-17T05:27:23.253Z,1018.25
2016-12-17T05:28:33.599Z,1018.24
2016-12-17T05:29:43.655Z,1018.21
2016-12-17T05:30:53.701Z,1018.2
2016-12-17T05:32:03.708Z,1018.24
2016-12-17T05:33:14.030Z,1018.2
2016-12-17T05:34:24.350Z,1018.25
2016-12-17T05:35:34.668Z,1018.22
2016-12-17T05:36:44.416Z,1018.24
2016-12-17T05:37:54.746Z,1018.25
2016-12-17T05:39:05.067Z,1018.26
2016-12-17T05:40:15.379Z,1018.26
2016-12-17T05:41:25.703Z,1018.29
2016-12-17T05:42:35.408Z,1018.33
2016-12-17T05:43:45.420Z,1018.31
2016-12-17T05:44:55.732Z,1018.35
2016-12-17T05:46:06.083Z,1018.43
2016-12-17T05:47:16.446Z,1018.45
2016-12-17T05:48:26.762Z,1018.45
2016-12-17T05:49:37.084Z,1018.46
2016-12-17T05:50:47.414Z,1018.45
2016-12-17T05:51:57.417Z,1018.48
2016-12-17T05:53:07.433Z,1018.48
2016-12-17T05:54:17.151Z,1018.47
2016-12-17T05:55:27.457Z,1018.45
2016-12-17T05:56:37.474Z,1018.47
2016-12-17T05:57:47.814Z,1018.48
2016-12-17T05:58:58.124Z,1018.45
2016-12-17T06:00:08.453Z,1018.44
2016-12-17T06:01:18.462Z,1018.48
2016-12-17T06:02:28.461Z,1018.44
2016-12-17T06:03:38.794Z,1018.41
2016-12-17T06:04:49.115Z,1018.47
2016-12-17T06:05:59.126Z,1018.42
2016-12-17T06:07:09.444Z,1018.43
2016-12-17T06:08:19.462Z,1018.44
2016-12-17T06:09:29.789Z,1018.45
2016-12-17T06:10:39.499Z,1018.45
2016-12-17T06:11:49.505Z,1018.5
2016-12-17T06:12:59.827Z,1018.46
2016-12-17T06:14:10.161Z,1018.53
2016-12-17T06:15:20.476Z,1018.56
2016-12-17T06:16:30.798Z,1018.56
2016-12-17T06:17:41.110Z,1018.61
2016-12-17T06:18:51.117Z,1018.61
2016-12-17T06:20:01.134Z,1018.65
2016-12-17T06:21:11.465Z,1018.67
2016-12-17T06:22:21.777Z,1018.68
2016-12-17T06:23:32.130Z,1018.72
2016-12-17T06:24:42.437Z,1018.7
2016-12-17T06:25:52.790Z,1018.73
2016-12-17T06:27:02.167Z,1018.73
2016-12-17T06:28:11.915Z,1018.74
2016-12-17T06:29:21.926Z,1018.77
2016-12-17T06:30:31.938Z,1018.81
2016-12-17T06:31:42.267Z,1018.81
2016-12-17T06:32:52.281Z,1018.84
2016-12-17T06:34:02.293Z,1018.86
2016-12-17T06:35:12.625Z,1018.9
2016-12-17T06:36:22.952Z,1018.9
2016-12-17T06:37:32.995Z,1018.97
2016-12-17T06:38:43.325Z,1018.96
2016-12-17T06:39:53.648Z,1018.95
2016-12-17T06:41:03.969Z,1018.97
2016-12-17T06:42:13.996Z,1019
2016-12-17T06:43:23.704Z,1019.07
2016-12-17T06:44:33.713Z,1019.07
2016-12-17T06:45:44.027Z,1019.14
2016-12-17T06:46:53.718Z,1019.12
2016-12-17T06:48:03.734Z,1019.12
2016-12-17T06:49:14.057Z,1019.06
2016-12-17T06:50:23.763Z,1019.11
2016-12-17T06:51:33.775Z,1019.11
2016-12-17T06:52:43.790Z,1019.12
2016-12-17T06:53:54.131Z,1019.16
2016-12-17T06:55:04.183Z,1019.18
2016-12-17T06:56:14.210Z,1019.21
2016-12-17T06:57:24.537Z,1019.21
2016-12-17T06:58:34.854Z,1019.26
2016-12-17T06:59:45.192Z,1019.24
2016-12-17T07:00:54.898Z,1019.21
2016-12-17T07:02:04.900Z,1019.2
2016-12-17T07:03:15.288Z,1019.15
2016-12-17T07:04:25.312Z,1019.16
2016-12-17T07:05:35.636Z,1019.12
2016-12-17T07:06:45.966Z,1019.12
2016-12-17T07:07:55.991Z,1019.16
2016-12-17T07:09:06.007Z,1019.16
2016-12-17T07:10:16.366Z,1019.18
2016-12-17T07:11:26.683Z,1019.21
2016-12-17T07:12:37.016Z,1019.21
2016-12-17T07:13:47.334Z,1019.28
2016-12-17T07:14:57.363Z,1019.26
2016-12-17T07:16:07.381Z,1019.31
2016-12-17T07:17:17.113Z,1019.3
2016-12-17T07:18:27.125Z,1019.32
2016-12-17T07:19:37.456Z,1019.36
2016-12-17T07:20:47.477Z,1019.32
2016-12-17T07:21:57.809Z,1019.36
2016-12-17T07:23:08.137Z,1019.34
2016-12-17T07:24:17.819Z,1019.33
2016-12-17T07:25:27.846Z,1019.34
2016-12-17T07:26:38.166Z,1019.37
2016-12-17T07:27:48.522Z,1019.39
2016-12-17T07:28:58.849Z,1019.41
2016-12-17T07:30:08.857Z,1019.4
2016-12-17T07:31:18.563Z,1019.43
2016-12-17T07:32:28.594Z,1019.42
2016-12-17T07:33:38.931Z,1019.43
2016-12-17T07:34:49.249Z,1019.39
2016-12-17T07:35:59.575Z,1019.38
2016-12-17T07:37:09.286Z,1019.39
2016-12-17T07:38:19.298Z,1019.46
2016-12-17T07:39:29.619Z,1019.44
2016-12-17T07:40:39.946Z,1019.45
2016-12-17T07:41:49.972Z,1019.48
2016-12-17T07:42:59.673Z,1019.45
2016-12-17T07:44:09.697Z,1019.42
2016-12-17T07:45:19.397Z,1019.39
2016-12-17T07:46:29.780Z,1019.48
2016-12-17T07:47:39.807Z,1019.5
2016-12-17T07:48:49.834Z,1019.48
2016-12-17T07:49:59.539Z,1019.59
2016-12-17T07:51:09.247Z,1019.57
2016-12-17T07:52:19.300Z,1019.59
2016-12-17T07:53:29.623Z,1019.53
2016-12-17T07:54:39.631Z,1019.54
2016-12-17T07:55:49.949Z,1019.54
2016-12-17T07:56:59.951Z,1019.51
2016-12-17T07:58:10.281Z,1019.59
2016-12-17T07:59:19.985Z,1019.58
2016-12-17T08:00:30.300Z,1019.61
2016-12-17T08:01:40.317Z,1019.64
2016-12-17T08:02:50.355Z,1019.63
2016-12-17T08:04:00.682Z,1019.65
2016-12-17T08:05:10.691Z,1019.67
2016-12-17T08:06:21.013Z,1019.68
2016-12-17T08:07:31.352Z,1019.62
2016-12-17T08:08:41.679Z,1019.64
2016-12-17T08:09:51.992Z,1019.62
2016-12-17T08:11:02.320Z,1019.66
2016-12-17T08:12:12.637Z,1019.66
2016-12-17T08:13:22.334Z,1019.68
2016-12-17T08:14:32.364Z,1019.62
2016-12-17T08:15:41.772Z,1019.66
2016-12-17T08:16:52.099Z,1019.64
2016-12-17T08:18:02.442Z,1019.63
2016-12-17T08:19:12.757Z,1019.6
2016-12-17T08:20:22.814Z,1019.63
2016-12-17T08:21:33.141Z,1019.59
2016-12-17T08:22:43.168Z,1019.56
2016-12-17T08:23:52.858Z,1019.57
2016-12-17T08:25:02.867Z,1019.57
2016-12-17T08:26:13.187Z,1019.61
2016-12-17T08:27:23.525Z,1019.6
2016-12-17T08:28:33.226Z,1019.63
2016-12-17T08:29:43.553Z,1019.64
2016-12-17T08:30:53.264Z,1019.68
2016-12-17T08:32:03.601Z,1019.68
2016-12-17T08:33:13.305Z,1019.68
2016-12-17T08:34:23.625Z,1019.65
2016-12-17T08:35:33.632Z,1019.63
2016-12-17T08:36:43.960Z,1019.63
2016-12-17T08:37:54.290Z,1019.63
2016-12-17T08:39:04.318Z,1019.62
2016-12-17T08:40:14.637Z,1019.64
2016-12-17T08:41:24.984Z,1019.7
2016-12-17T08:42:34.997Z,1019.68
2016-12-17T08:43:45.323Z,1019.65
2016-12-17T08:44:55.049Z,1019.65
2016-12-17T08:46:05.056Z,1019.64
2016-12-17T08:47:14.773Z,1019.64
2016-12-17T08:48:25.100Z,1019.58
2016-12-17T08:49:35.424Z,1019.61
2016-12-17T08:50:45.733Z,1019.62
2016-12-17T08:51:55.761Z,1019.64
2016-12-17T08:53:06.092Z,1019.69
2016-12-17T08:54:15.492Z,1019.74
2016-12-17T08:55:25.830Z,1019.82
2016-12-17T08:56:36.182Z,1019.84
2016-12-17T08:57:46.203Z,1019.85
2016-12-17T08:58:56.232Z,1019.84
2016-12-17T09:00:06.251Z,1019.84
2016-12-17T09:01:16.657Z,1019.83
2016-12-17T09:02:26.988Z,1019.83
2016-12-17T09:03:37.351Z,1019.89
2016-12-17T09:04:47.053Z,1019.88
2016-12-17T09:05:56.794Z,1019.91
2016-12-17T09:07:06.196Z,1019.97
2016-12-17T09:08:15.904Z,1019.96
2016-12-17T09:09:25.959Z,1019.94
2016-12-17T09:10:36.279Z,1019.91
2016-12-17T09:11:46.304Z,1019.89
2016-12-17T09:12:56.333Z,1019.86
2016-12-17T09:14:06.662Z,1019.85
2016-12-17T09:15:16.680Z,1019.88
2016-12-17T09:16:26.689Z,1019.87
2016-12-17T09:17:37.038Z,1019.86
2016-12-17T09:18:47.359Z,1019.89
2016-12-17T09:19:57.695Z,1019.89
2016-12-17T09:21:07.415Z,1019.93
2016-12-17T09:22:17.442Z,1019.91
2016-12-17T09:23:27.827Z,1019.93
2016-12-17T09:24:37.842Z,1019.9
2016-12-17T09:25:47.863Z,1019.88
2016-12-17T09:26:57.876Z,1019.88
2016-12-17T09:28:07.909Z,1019.84
2016-12-17T09:29:18.244Z,1019.9
2016-12-17T09:30:28.565Z,1019.9
2016-12-17T09:31:38.592Z,1019.89
2016-12-17T09:32:48.910Z,1019.89
2016-12-17T09:33:58.613Z,1019.85
2016-12-17T09:35:08.317Z,1019.83
2016-12-17T09:36:18.648Z,1019.81
2016-12-17T09:37:28.955Z,1019.83
2016-12-17T09:38:38.993Z,1019.78
2016-12-17T09:39:49.024Z,1019.79
2016-12-17T09:40:59.040Z,1019.79
2016-12-17T09:42:09.077Z,1019.78
2016-12-17T09:43:19.088Z,1019.73
2016-12-17T09:44:29.445Z,1019.72
2016-12-17T09:45:39.472Z,1019.73
2016-12-17T09:46:49.799Z,1019.68
2016-12-17T09:47:59.806Z,1019.7
2016-12-17T09:49:10.132Z,1019.72
2016-12-17T09:50:19.554Z,1019.72
2016-12-17T09:51:29.251Z,1019.76
2016-12-17T09:52:38.973Z,1019.75
2016-12-17T09:53:49.295Z,1019.73
2016-12-17T09:54:59.615Z,1019.78
2016-12-17T09:56:09.644Z,1019.78
2016-12-17T09:57:19.980Z,1019.74
2016-12-17T09:58:30.013Z,1019.76
2016-12-17T09:59:40.387Z,1019.71
2016-12-17T10:00:50.414Z,1019.7
2016-12-17T10:02:00.743Z,1019.68
2016-12-17T10:03:11.296Z,1019.63
2016-12-17T10:04:21.619Z,1019.63
2016-12-17T10:05:31.981Z,1019.64
2016-12-17T10:06:42.294Z,1019.64
2016-12-17T10:07:52.614Z,1019.67
2016-12-17T10:09:02.649Z,1019.68
2016-12-17T10:10:12.358Z,1019.63
2016-12-17T10:11:22.085Z,1019.62
2016-12-17T10:12:32.396Z,1019.61
2016-12-17T10:13:42.099Z,1019.62
2016-12-17T10:14:52.112Z,1019.62
2016-12-17T10:16:02.446Z,1019.64
2016-12-17T10:17:12.473Z,1019.6
2016-12-17T10:18:22.476Z,1019.64
2016-12-17T10:19:32.496Z,1019.65
2016-12-17T10:20:42.194Z,1019.63
2016-12-17T10:21:51.909Z,1019.6
2016-12-17T10:23:02.255Z,1019.6
2016-12-17T10:24:12.592Z,1019.57
2016-12-17T10:25:22.920Z,1019.55
2016-12-17T10:26:32.922Z,1019.53
2016-12-17T10:27:43.248Z,1019.5
2016-12-17T10:28:53.259Z,1019.5
2016-12-17T10:30:03.268Z,1019.47
2016-12-17T10:31:13.288Z,1019.45
2016-12-17T10:32:22.996Z,1019.45
2016-12-17T10:33:33.356Z,1019.4
2016-12-17T10:34:43.076Z,1019.37
2016-12-17T10:35:52.806Z,1019.39
2016-12-17T10:37:03.137Z,1019.4
2016-12-17T10:38:13.465Z,1019.4
2016-12-17T10:39:23.480Z,1019.43
2016-12-17T10:40:33.801Z,1019.41
2016-12-17T10:41:43.814Z,1019.37
2016-12-17T10:42:53.835Z,1019.44
2016-12-17T10:44:04.167Z,1019.38
2016-12-17T10:45:14.191Z,1019.41
2016-12-17T10:46:24.546Z,1019.42
2016-12-17T10:47:34.253Z,1019.42
2016-12-17T10:48:44.278Z,1019.42
2016-12-17T10:49:53.675Z,1019.44
2016-12-17T10:51:03.682Z,1019.41
2016-12-17T10:52:14.013Z,1019.44
2016-12-17T10:53:24.341Z,1019.4
2016-12-17T10:54:34.361Z,1019.45
2016-12-17T10:55:44.688Z,1019.37
2016-12-17T10:56:55.025Z,1019.4
2016-12-17T10:58:05.353Z,1019.32
2016-12-17T10:59:15.404Z,1019.33
2016-12-17T11:00:25.106Z,1019.31
2016-12-17T11:01:35.122Z,1019.32
2016-12-17T11:02:45.133Z,1019.32
2016-12-17T11:03:55.460Z,1019.32
2016-12-17T11:05:05.473Z,1019.31
2016-12-17T11:06:15.794Z,1019.36
2016-12-17T11:07:25.807Z,1019.33
2016-12-17T11:08:35.810Z,1019.35
2016-12-17T11:09:46.131Z,1019.31
2016-12-17T11:10:56.141Z,1019.29
2016-12-17T11:12:06.468Z,1019.32
2016-12-17T11:13:16.479Z,1019.34
2016-12-17T11:14:26.506Z,1019.33
2016-12-17T11:15:36.517Z,1019.34
2016-12-17T11:16:46.831Z,1019.29
2016-12-17T11:17:57.156Z,1019.27
2016-12-17T11:19:07.477Z,1019.3
2016-12-17T11:20:17.503Z,1019.24
2016-12-17T11:21:26.882Z,1019.27
2016-12-17T11:22:36.882Z,1019.22
2016-12-17T11:23:47.199Z,1019.21
2016-12-17T11:24:57.246Z,1019.18
2016-12-17T11:26:06.955Z,1019.15
2016-12-17T11:27:17.300Z,1019.17
2016-12-17T11:28:27.621Z,1019.13
2016-12-17T11:29:37.933Z,1019.12
2016-12-17T11:30:48.280Z,1019.11
2016-12-17T11:31:57.986Z,1019.12
2016-12-17T11:33:07.379Z,1019.1
2016-12-17T11:34:17.695Z,1019.04
2016-12-17T11:35:27.726Z,1019.04
2016-12-17T11:36:37.748Z,1019.03
2016-12-17T11:37:48.084Z,1018.98
2016-12-17T11:38:57.486Z,1018.95
2016-12-17T11:40:07.492Z,1019.01
2016-12-17T11:41:17.830Z,1018.98
2016-12-17T11:42:28.177Z,1018.97
2016-12-17T11:43:38.199Z,1018.94
2016-12-17T11:44:48.545Z,1018.98
2016-12-17T11:45:58.852Z,1018.98
2016-12-17T11:47:09.182Z,1018.98
2016-12-17T11:48:19.514Z,1018.98
2016-12-17T11:49:29.571Z,1018.94
2016-12-17T11:50:39.910Z,1018.94
2016-12-17T11:51:49.321Z,1018.93
2016-12-17T11:52:59.637Z,1018.96
2016-12-17T11:54:09.644Z,1018.96
2016-12-17T11:55:19.664Z,1018.97
2016-12-17T11:56:29.377Z,1018.97
2016-12-17T11:57:39.689Z,1018.93
2016-12-17T11:58:50.019Z,1018.92
2016-12-17T12:00:00.082Z,1018.93
2016-12-17T12:01:10.154Z,1018.92
2016-12-17T12:02:19.898Z,1018.92
2016-12-17T12:03:29.913Z,1018.91
2016-12-17T12:04:40.247Z,1018.9
2016-12-17T12:05:50.575Z,1018.93
2016-12-17T12:07:00.588Z,1018.9
2016-12-17T12:08:10.963Z,1018.92
2016-12-17T12:09:21.285Z,1018.89
2016-12-17T12:10:30.982Z,1018.96
2016-12-17T12:11:41.008Z,1018.93
2016-12-17T12:12:51.333Z,1018.9
2016-12-17T12:14:01.349Z,1018.92
2016-12-17T12:15:11.099Z,1018.88
2016-12-17T12:16:21.120Z,1018.89
2016-12-17T12:17:31.466Z,1018.86
2016-12-17T12:18:41.484Z,1018.86
2016-12-17T12:19:51.517Z,1018.86
2016-12-17T12:21:01.845Z,1018.82
2016-12-17T12:22:11.865Z,1018.79
2016-12-17T12:23:22.195Z,1018.8
2016-12-17T12:24:32.258Z,1018.77
2016-12-17T12:25:42.585Z,1018.74
2016-12-17T12:26:52.937Z,1018.76
2016-12-17T12:28:02.994Z,1018.75
2016-12-17T12:29:13.344Z,1018.76
2016-12-17T12:30:23.369Z,1018.8
2016-12-17T12:31:33.722Z,1018.75
2016-12-17T12:32:44.053Z,1018.71
2016-12-17T12:33:54.079Z,1018.67
2016-12-17T12:35:03.802Z,1018.67
2016-12-17T12:36:13.532Z,1018.68
2016-12-17T12:37:23.265Z,1018.69
2016-12-17T12:38:33.622Z,1018.62
2016-12-17T12:39:43.653Z,1018.67
2016-12-17T12:40:53.981Z,1018.63
2016-12-17T12:42:04.028Z,1018.59
2016-12-17T12:43:14.395Z,1018.59
2016-12-17T12:44:24.738Z,1018.6
2016-12-17T12:45:35.098Z,1018.58
2016-12-17T12:46:45.126Z,1018.6
2016-12-17T12:47:55.168Z,1018.55
2016-12-17T12:49:05.503Z,1018.56
2016-12-17T12:50:15.888Z,1018.59
2016-12-17T12:51:26.244Z,1018.62
2016-12-17T12:52:36.628Z,1018.59
2016-12-17T12:53:46.958Z,1018.64
2016-12-17T12:54:57.290Z,1018.62
2016-12-17T12:56:07.321Z,1018.63
2016-12-17T12:57:17.063Z,1018.63
2016-12-17T12:58:27.395Z,1018.62
2016-12-17T12:59:37.744Z,1018.67
2016-12-17T13:00:48.116Z,1018.65
2016-12-17T13:01:58.141Z,1018.65
2016-12-17T13:03:08.177Z,1018.66
2016-12-17T13:04:18.193Z,1018.65
2016-12-17T13:05:27.900Z,1018.68
2016-12-17T13:06:38.220Z,1018.67
2016-12-17T13:07:48.805Z,1018.7
2016-12-17T13:08:58.208Z,1018.67
2016-12-17T13:10:08.548Z,1018.66
2016-12-17T13:11:18.563Z,1018.66
2016-12-17T13:12:28.590Z,1018.65
2016-12-17T13:13:38.614Z,1018.61
2016-12-17T13:14:48.945Z,1018.63
2016-12-17T13:15:58.980Z,1018.6
2016-12-17T13:17:09.342Z,1018.6
2016-12-17T13:18:19.352Z,1018.61
2016-12-17T13:19:29.084Z,1018.62
2016-12-17T13:20:39.464Z,1018.62
2016-12-17T13:21:49.788Z,1018.62
2016-12-17T13:23:00.147Z,1018.64
2016-12-17T13:24:10.510Z,1018.64
2016-12-17T13:25:20.544Z,1018.6
2016-12-17T13:26:30.563Z,1018.62
2016-12-17T13:27:40.922Z,1018.61
2016-12-17T13:28:50.952Z,1018.64
2016-12-17T13:30:00.695Z,1018.62
2016-12-17T13:31:10.416Z,1018.62
2016-12-17T13:32:20.467Z,1018.67
2016-12-17T13:33:30.514Z,1018.64
2016-12-17T13:34:40.530Z,1018.69
2016-12-17T13:35:50.815Z,1018.69
2016-12-17T13:37:01.179Z,1018.7
2016-12-17T13:38:10.907Z,1018.68
2016-12-17T13:39:21.275Z,1018.7
2016-12-17T13:40:31.317Z,1018.71
2016-12-17T13:41:41.356Z,1018.71
2016-12-17T13:42:51.397Z,1018.74
2016-12-17T13:44:01.136Z,1018.68
2016-12-17T13:45:11.159Z,1018.75
2016-12-17T13:46:21.510Z,1018.72
2016-12-17T13:47:31.915Z,1018.77
2016-12-17T13:48:41.947Z,1018.72
2016-12-17T13:49:52.304Z,1018.74
2016-12-17T13:51:02.347Z,1018.69
2016-12-17T13:52:12.766Z,1018.71
2016-12-17T13:53:23.115Z,1018.76
2016-12-17T13:54:33.495Z,1018.78
2016-12-17T13:55:43.258Z,1018.75
2016-12-17T13:56:53.614Z,1018.8
2016-12-17T13:58:03.985Z,1018.8
2016-12-17T13:59:14.368Z,1018.79
2016-12-17T14:00:24.740Z,1018.79
2016-12-17T14:01:35.067Z,1018.82
2016-12-17T14:02:45.152Z,1018.79
2016-12-17T14:03:55.236Z,1018.84
2016-12-17T14:05:05.632Z,1018.8
2016-12-17T14:06:15.992Z,1018.8
2016-12-17T14:07:25.695Z,1018.83
2016-12-17T14:08:35.745Z,1018.8
2016-12-17T14:09:45.790Z,1018.81
2016-12-17T14:10:55.215Z,1018.84
2016-12-17T14:12:05.585Z,1018.82
2016-12-17T14:13:15.660Z,1018.81
2016-12-17T14:14:25.685Z,1018.84
2016-12-17T14:15:35.774Z,1018.83
2016-12-17T14:16:45.510Z,1018.87
2016-12-17T14:17:54.934Z,1018.89
2016-12-17T14:19:05.001Z,1018.85
2016-12-17T14:20:15.370Z,1018.88
2016-12-17T14:21:25.391Z,1018.87
2016-12-17T14:22:35.462Z,1018.88
2016-12-17T14:23:45.499Z,1018.86
2016-12-17T14:24:55.867Z,1018.89
2016-12-17T14:26:06.230Z,1018.85
2016-12-17T14:27:16.719Z,1018.83
2016-12-17T14:28:27.048Z,1018.85
2016-12-17T14:29:36.772Z,1018.79
2016-12-17T14:30:47.187Z,1018.81
2016-12-17T14:31:56.909Z,1018.82
2016-12-17T14:33:07.252Z,1018.88
2016-12-17T14:34:17.003Z,1018.85
2016-12-17T14:35:27.343Z,1018.88
2016-12-17T14:36:37.688Z,1018.92
2016-12-17T14:37:48.070Z,1018.86
2016-12-17T14:38:58.438Z,1018.9
2016-12-17T14:40:08.467Z,1018.87
2016-12-17T14:41:18.179Z,1018.82
2016-12-17T14:42:28.526Z,1018.81